Hanjin Phoenix — A8CN9 — position and weather

sailwx.info

Track history (hours):
 
Tides and Currents Weather Stations Pressure Air Temp Water Temp Dewpoint Dewpoint Depression Visibility Wind Speed Wind Dir Waves Ship Positions

Hanjin Phoenix

Last reported at 2015-Jul-31 18:20 UTC. Time now 2015-Aug-01 09:49 UTC.
Position N 36°04' W 010°32'.

Length 282.1 m; beam 32.2 m; draft 13 m.

Type: Ship (hazmat cat A). MMSI: 636090671.

Date/timePositionNaut miles runAvg speedWind from/ knotsBaromVisibWave heightAir tempDewpointWater temp
2015-Jul-31 18:20N 36°04' W 010°32'1315.8
2015-Jul-31 17:32N 36°05' W 010°16'3115.6
2015-Jul-31 15:32N 36°04' W 009°38'1615.7
2015-Jul-31 14:33N 36°04' W 009°19'1615.7
2015-Jul-31 13:33N 36°03' W 008°60'38814.4
2015-Jul-30 10:33N 37°13' W 001°03'1615.8
2015-Jul-30 09:33N 37°23' W 000°49'1515.5
2015-Jul-30 08:33N 37°34' W 000°34'1515.6
2015-Jul-30 07:33N 37°47' W 000°24'1515.4
2015-Jul-30 06:34N 37°59' W 000°12'8712.4
2015-Jul-29 23:33N 39°26' W 000°18'1 1.1
2015-Jul-29 22:27N 39°27' W 000°19'0 0.0
2015-Jul-29 21:33N 39°27' W 000°19'0 0.0
2015-Jul-29 20:33N 39°27' W 000°19'0 0.0
2015-Jul-29 19:33N 39°27' W 000°19'0 0.0
2015-Jul-29 18:33N 39°27' W 000°19'0 0.0
2015-Jul-29 17:30N 39°27' W 000°19'0 0.0
2015-Jul-29 16:33N 39°27' W 000°19'0 0.0
2015-Jul-29 14:27N 39°27' W 000°19'0 0.0
2015-Jul-29 13:33N 39°27' W 000°19'0 0.0
2015-Jul-29 12:33N 39°27' W 000°19'0 0.0
2015-Jul-29 11:30N 39°27' W 000°19'0 0.0
2015-Jul-29 10:34N 39°27' W 000°19'0 0.0
2015-Jul-29 09:25N 39°27' W 000°19'0 0.0
2015-Jul-29 08:26N 39°27' W 000°19'0 0.0
2015-Jul-29 07:14N 39°27' W 000°19'0 0.0
2015-Jul-29 06:32N 39°27' W 000°19'1 1.5
2015-Jul-29 05:33N 39°26' W 000°18'4 3.9
2015-Jul-29 04:30N 39°25' W 000°13'79 8.7
2015-Jul-28 19:27N 40°11' E 001°11'180 4.9
2015-Jul-27 06:29N 42°04' E 004°17'910.2
2015-Jul-27 05:33N 42°08' E 004°29'1110.7
2015-Jul-27 04:33N 42°13' E 004°42'1111.1
2015-Jul-27 03:33N 42°18' E 004°55'1111.0
2015-Jul-27 02:33N 42°23' E 005°08'1110.8
2015-Jul-27 01:34N 42°28' E 005°21'1111.2
2015-Jul-27 00:34N 42°33' E 005°35'1111.2
2015-Jul-26 23:33N 42°38' E 005°48'1111.4
2015-Jul-26 22:33N 42°43' E 006°02'1311.5
2015-Jul-26 21:28N 42°49' E 006°18'1011.6
2015-Jul-26 20:33N 42°53' E 006°31'1111.4
2015-Jul-26 19:33N 42°60' E 006°43'1111.1
2015-Jul-26 18:33N 43°06' E 006°55'1111.4
2015-Jul-26 17:33N 43°13' E 007°08'1211.8
2015-Jul-26 16:33N 43°20' E 007°21'6011.4
2015-Jul-26 11:16N 43°58' E 008°26'810.9
2015-Jul-26 10:32N 44°05' E 008°31'1111.0
2015-Jul-26 09:33N 44°15' E 008°37'1110.8
2015-Jul-26 08:33N 44°24' E 008°44'2 2.0
2015-Jul-26 07:31N 44°25' E 008°47'0 0.0
2015-Jul-26 06:31N 44°25' E 008°47'0 0.0
2015-Jul-26 05:31N 44°25' E 008°47'0 0.0
2015-Jul-26 04:31N 44°25' E 008°47'0 0.0
2015-Jul-26 03:32N 44°25' E 008°47'0 0.0
2015-Jul-26 02:32N 44°25' E 008°47'0 0.0
2015-Jul-26 01:32N 44°25' E 008°47'0 0.0
2015-Jul-26 00:32N 44°25' E 008°47'0 0.0
2015-Jul-25 23:32N 44°25' E 008°47'0 0.0
2015-Jul-25 22:32N 44°25' E 008°47'0 0.0
2015-Jul-25 21:29N 44°25' E 008°47'0 0.0
2015-Jul-25 20:32N 44°25' E 008°47'0 0.0
2015-Jul-25 19:29N 44°25' E 008°47'0 0.0
2015-Jul-25 18:26N 44°25' E 008°47'0 0.0
2015-Jul-25 17:29N 44°25' E 008°47'0 0.0
2015-Jul-25 16:26N 44°25' E 008°47'0 0.0
2015-Jul-25 15:29N 44°25' E 008°47'0 0.1
2015-Jul-25 14:33N 44°25' E 008°47'4 3.6
2015-Jul-25 13:33N 44°23' E 008°43'3 3.2
2015-Jul-25 12:33N 44°20' E 008°43'3 2.5
2015-Jul-25 11:33N 44°17' E 008°44'1 0.8
2015-Jul-25 10:33N 44°17' E 008°44'0 0.4
2015-Jul-25 09:33N 44°17' E 008°44'0 0.4
2015-Jul-25 08:33N 44°17' E 008°45'3 3.3
2015-Jul-25 07:33N 44°15' E 008°49'3 3.2
2015-Jul-25 06:33N 44°14' E 008°53'0 0.3
2015-Jul-25 05:33N 44°14' E 008°53'0 0.3
2015-Jul-25 04:33N 44°14' E 008°53'0 0.4
2015-Jul-25 03:33N 44°15' E 008°53'0 0.4
2015-Jul-25 02:33N 44°14' E 008°53'0 0.3
2015-Jul-25 01:33N 44°14' E 008°52'1 0.5
2015-Jul-25 00:33N 44°14' E 008°52'1 0.7
2015-Jul-24 23:33N 44°14' E 008°51'1 0.5
2015-Jul-24 22:33N 44°14' E 008°50'0 0.4
2015-Jul-24 21:33N 44°14' E 008°50'0 0.4
2015-Jul-24 20:33N 44°13' E 008°50'7 7.4
2015-Jul-24 19:33N 44°09' E 008°59'1110.7
2015-Jul-24 18:33N 44°01' E 009°08'1110.5
2015-Jul-24 17:33N 43°54' E 009°18'1010.3
2015-Jul-24 16:33N 43°47' E 009°29'1010.3
2015-Jul-24 15:33N 43°40' E 009°40'1010.4
2015-Jul-24 14:33N 43°33' E 009°50'1010.3
2015-Jul-24 13:33N 43°30' E 010°04'10 9.9
2015-Jul-24 12:33N 43°32' E 010°17'2 2.3
2015-Jul-24 11:33N 43°34' E 010°18'0 0.0
2015-Jul-24 10:31N 43°34' E 010°18'0 0.0
2015-Jul-24 09:31N 43°34' E 010°18'0 0.0
2015-Jul-24 08:31N 43°34' E 010°18'0 0.0
2015-Jul-24 07:31N 43°34' E 010°18'0 0.0
2015-Jul-24 06:31N 43°34' E 010°18'0 0.0
2015-Jul-24 05:31N 43°34' E 010°18'0 0.0
2015-Jul-24 04:31N 43°34' E 010°18'0 0.0
2015-Jul-24 03:31N 43°34' E 010°18'0 0.0
2015-Jul-24 02:31N 43°34' E 010°18'0 0.0
2015-Jul-24 01:31N 43°34' E 010°18'0 0.0
2015-Jul-24 00:28N 43°34' E 010°18'0 0.0
2015-Jul-23 23:31N 43°34' E 010°18'0 0.0
2015-Jul-23 22:31N 43°34' E 010°18'0 0.0
2015-Jul-23 21:31N 43°34' E 010°18'0 0.0
2015-Jul-23 20:31N 43°34' E 010°18'0 0.0
2015-Jul-23 19:33N 43°34' E 010°18'0 0.0
2015-Jul-23 18:33N 43°34' E 010°18'0 0.0
2015-Jul-23 17:30N 43°34' E 010°18'0 0.0
2015-Jul-23 16:33N 43°34' E 010°18'0 0.3
2015-Jul-23 15:33N 43°34' E 010°18'8 7.8
2015-Jul-23 14:34N 43°28' E 010°13'1818.3
2015-Jul-23 13:34N 43°10' E 010°04'1818.3
2015-Jul-23 12:33N 42°53' E 009°55'1615.5
2015-Jul-23 11:33N 42°38' E 009°53'1615.6
2015-Jul-23 10:33N 42°22' E 009°54'1615.8
2015-Jul-23 09:33N 42°06' E 009°54'1616.0
2015-Jul-23 08:33N 41°51' E 009°55'3516.1
2015-Jul-23 06:21N 41°15' E 009°58'1315.8
2015-Jul-23 05:33N 41°03' E 009°59'5616.7
2015-Jul-23 02:14N 40°07' E 009°57'4617.0
2015-Jul-22 23:31N 39°21' E 009°52'2914.6
2015-Jul-22 21:33N 38°59' E 009°28'1716.6
2015-Jul-22 20:33N 39°06' E 009°09'8 7.6
2015-Jul-22 19:31N 39°13' E 009°04'0 0.0
2015-Jul-22 18:31N 39°13' E 009°04'0 0.0
2015-Jul-22 17:31N 39°13' E 009°04'0 0.0
2015-Jul-22 16:31N 39°13' E 009°04'0 0.0
2015-Jul-22 15:31N 39°13' E 009°04'0 0.0
2015-Jul-22 14:31N 39°13' E 009°04'0 0.0
2015-Jul-22 13:32N 39°13' E 009°04'0 0.0
2015-Jul-22 12:32N 39°13' E 009°04'0 0.0
2015-Jul-22 11:32N 39°13' E 009°04'0 0.0
2015-Jul-22 10:32N 39°13' E 009°04'0 0.0
2015-Jul-22 09:32N 39°13' E 009°04'0 0.0
2015-Jul-22 08:32N 39°13' E 009°04'0 0.0
2015-Jul-22 07:29N 39°13' E 009°04'0 0.0
2015-Jul-22 06:32N 39°13' E 009°04'0 0.0
2015-Jul-22 05:32N 39°13' E 009°04'0 0.0
2015-Jul-22 04:32N 39°13' E 009°04'0 0.0
2015-Jul-22 03:31N 39°13' E 009°04'0 0.0
2015-Jul-22 02:31N 39°13' E 009°04'0 0.0
2015-Jul-22 01:28N 39°13' E 009°04'0 0.0
2015-Jul-22 00:28N 39°13' E 009°04'0 0.0
2015-Jul-21 23:31N 39°13' E 009°04'0 0.0
2015-Jul-21 22:31N 39°13' E 009°04'0 0.0
2015-Jul-21 21:31N 39°13' E 009°04'0 0.0
2015-Jul-21 20:31N 39°13' E 009°04'0 0.0
2015-Jul-21 19:31N 39°13' E 009°04'0 0.0
2015-Jul-21 18:31N 39°13' E 009°04'  
Track history (hours):
 
Tides and Currents Weather Stations Pressure Air Temp Water Temp Dewpoint Dewpoint Depression Visibility Wind Speed Wind Dir Waves Ship Positions

Hanjin Phoenix

Last reported at 2015-Jul-31 18:20 UTC. Time now 2015-Aug-01 09:49 UTC.
Position N 36°04' W 010°32'.

Length 282.1 m; beam 32.2 m; draft 13 m.

Type: Ship (hazmat cat A). MMSI: 636090671.

Date/timePositionNaut miles runAvg speedWind from/ knotsBaromVisibWave heightAir tempDewpointWater temp
2015-Jul-31 18:20N 36°04' W 010°32'1315.8
2015-Jul-31 17:32N 36°05' W 010°16'3115.6
2015-Jul-31 15:32N 36°04' W 009°38'1615.7
2015-Jul-31 14:33N 36°04' W 009°19'1615.7
2015-Jul-31 13:33N 36°03' W 008°60'38814.4
2015-Jul-30 10:33N 37°13' W 001°03'1615.8
2015-Jul-30 09:33N 37°23' W 000°49'1515.5
2015-Jul-30 08:33N 37°34' W 000°34'1515.6
2015-Jul-30 07:33N 37°47' W 000°24'1515.4
2015-Jul-30 06:34N 37°59' W 000°12'8712.4
2015-Jul-29 23:33N 39°26' W 000°18'1 1.1
2015-Jul-29 22:27N 39°27' W 000°19'0 0.0
2015-Jul-29 21:33N 39°27' W 000°19'0 0.0
2015-Jul-29 20:33N 39°27' W 000°19'0 0.0
2015-Jul-29 19:33N 39°27' W 000°19'0 0.0
2015-Jul-29 18:33N 39°27' W 000°19'0 0.0
2015-Jul-29 17:30N 39°27' W 000°19'0 0.0
2015-Jul-29 16:33N 39°27' W 000°19'0 0.0
2015-Jul-29 14:27N 39°27' W 000°19'0 0.0
2015-Jul-29 13:33N 39°27' W 000°19'0 0.0
2015-Jul-29 12:33N 39°27' W 000°19'0 0.0
2015-Jul-29 11:30N 39°27' W 000°19'0 0.0
2015-Jul-29 10:34N 39°27' W 000°19'0 0.0
2015-Jul-29 09:25N 39°27' W 000°19'0 0.0
2015-Jul-29 08:26N 39°27' W 000°19'0 0.0
2015-Jul-29 07:14N 39°27' W 000°19'0 0.0
2015-Jul-29 06:32N 39°27' W 000°19'1 1.5
2015-Jul-29 05:33N 39°26' W 000°18'4 3.9
2015-Jul-29 04:30N 39°25' W 000°13'79 8.7
2015-Jul-28 19:27N 40°11' E 001°11'180 4.9
2015-Jul-27 06:29N 42°04' E 004°17'910.2
2015-Jul-27 05:33N 42°08' E 004°29'1110.7
2015-Jul-27 04:33N 42°13' E 004°42'1111.1
2015-Jul-27 03:33N 42°18' E 004°55'1111.0
2015-Jul-27 02:33N 42°23' E 005°08'1110.8
2015-Jul-27 01:34N 42°28' E 005°21'1111.2
2015-Jul-27 00:34N 42°33' E 005°35'1111.2
2015-Jul-26 23:33N 42°38' E 005°48'1111.4
2015-Jul-26 22:33N 42°43' E 006°02'1311.5
2015-Jul-26 21:28N 42°49' E 006°18'1011.6
2015-Jul-26 20:33N 42°53' E 006°31'1111.4
2015-Jul-26 19:33N 42°60' E 006°43'1111.1
2015-Jul-26 18:33N 43°06' E 006°55'1111.4
2015-Jul-26 17:33N 43°13' E 007°08'1211.8
2015-Jul-26 16:33N 43°20' E 007°21'6011.4
2015-Jul-26 11:16N 43°58' E 008°26'810.9
2015-Jul-26 10:32N 44°05' E 008°31'1111.0
2015-Jul-26 09:33N 44°15' E 008°37'1110.8
2015-Jul-26 08:33N 44°24' E 008°44'2 2.0
2015-Jul-26 07:31N 44°25' E 008°47'0 0.0
2015-Jul-26 06:31N 44°25' E 008°47'0 0.0
2015-Jul-26 05:31N 44°25' E 008°47'0 0.0
2015-Jul-26 04:31N 44°25' E 008°47'0 0.0
2015-Jul-26 03:32N 44°25' E 008°47'0 0.0
2015-Jul-26 02:32N 44°25' E 008°47'0 0.0
2015-Jul-26 01:32N 44°25' E 008°47'0 0.0
2015-Jul-26 00:32N 44°25' E 008°47'0 0.0
2015-Jul-25 23:32N 44°25' E 008°47'0 0.0
2015-Jul-25 22:32N 44°25' E 008°47'0 0.0
2015-Jul-25 21:29N 44°25' E 008°47'0 0.0
2015-Jul-25 20:32N 44°25' E 008°47'0 0.0
2015-Jul-25 19:29N 44°25' E 008°47'0 0.0
2015-Jul-25 18:26N 44°25' E 008°47'0 0.0
2015-Jul-25 17:29N 44°25' E 008°47'0 0.0
2015-Jul-25 16:26N 44°25' E 008°47'0 0.0
2015-Jul-25 15:29N 44°25' E 008°47'0 0.1
2015-Jul-25 14:33N 44°25' E 008°47'4 3.6
2015-Jul-25 13:33N 44°23' E 008°43'3 3.2
2015-Jul-25 12:33N 44°20' E 008°43'3 2.5
2015-Jul-25 11:33N 44°17' E 008°44'1 0.8
2015-Jul-25 10:33N 44°17' E 008°44'0 0.4
2015-Jul-25 09:33N 44°17' E 008°44'0 0.4
2015-Jul-25 08:33N 44°17' E 008°45'3 3.3
2015-Jul-25 07:33N 44°15' E 008°49'3 3.2
2015-Jul-25 06:33N 44°14' E 008°53'0 0.3
2015-Jul-25 05:33N 44°14' E 008°53'0 0.3
2015-Jul-25 04:33N 44°14' E 008°53'0 0.4
2015-Jul-25 03:33N 44°15' E 008°53'0 0.4
2015-Jul-25 02:33N 44°14' E 008°53'0 0.3
2015-Jul-25 01:33N 44°14' E 008°52'1 0.5
2015-Jul-25 00:33N 44°14' E 008°52'1 0.7
2015-Jul-24 23:33N 44°14' E 008°51'1 0.5
2015-Jul-24 22:33N 44°14' E 008°50'0 0.4
2015-Jul-24 21:33N 44°14' E 008°50'0 0.4
2015-Jul-24 20:33N 44°13' E 008°50'7 7.4
2015-Jul-24 19:33N 44°09' E 008°59'1110.7
2015-Jul-24 18:33N 44°01' E 009°08'1110.5
2015-Jul-24 17:33N 43°54' E 009°18'1010.3
2015-Jul-24 16:33N 43°47' E 009°29'1010.3
2015-Jul-24 15:33N 43°40' E 009°40'1010.4
2015-Jul-24 14:33N 43°33' E 009°50'1010.3
2015-Jul-24 13:33N 43°30' E 010°04'10 9.9
2015-Jul-24 12:33N 43°32' E 010°17'2 2.3
2015-Jul-24 11:33N 43°34' E 010°18'0 0.0
2015-Jul-24 10:31N 43°34' E 010°18'0 0.0
2015-Jul-24 09:31N 43°34' E 010°18'0 0.0
2015-Jul-24 08:31N 43°34' E 010°18'0 0.0
2015-Jul-24 07:31N 43°34' E 010°18'0 0.0
2015-Jul-24 06:31N 43°34' E 010°18'0 0.0
2015-Jul-24 05:31N 43°34' E 010°18'0 0.0
2015-Jul-24 04:31N 43°34' E 010°18'0 0.0
2015-Jul-24 03:31N 43°34' E 010°18'0 0.0
2015-Jul-24 02:31N 43°34' E 010°18'0 0.0
2015-Jul-24 01:31N 43°34' E 010°18'0 0.0
2015-Jul-24 00:28N 43°34' E 010°18'0 0.0
2015-Jul-23 23:31N 43°34' E 010°18'0 0.0
2015-Jul-23 22:31N 43°34' E 010°18'0 0.0
2015-Jul-23 21:31N 43°34' E 010°18'0 0.0
2015-Jul-23 20:31N 43°34' E 010°18'0 0.0
2015-Jul-23 19:33N 43°34' E 010°18'0 0.0
2015-Jul-23 18:33N 43°34' E 010°18'0 0.0
2015-Jul-23 17:30N 43°34' E 010°18'0 0.0
2015-Jul-23 16:33N 43°34' E 010°18'0 0.3
2015-Jul-23 15:33N 43°34' E 010°18'8 7.8
2015-Jul-23 14:34N 43°28' E 010°13'1818.3
2015-Jul-23 13:34N 43°10' E 010°04'1818.3
2015-Jul-23 12:33N 42°53' E 009°55'1615.5
2015-Jul-23 11:33N 42°38' E 009°53'1615.6
2015-Jul-23 10:33N 42°22' E 009°54'1615.8
2015-Jul-23 09:33N 42°06' E 009°54'1616.0
2015-Jul-23 08:33N 41°51' E 009°55'3516.1
2015-Jul-23 06:21N 41°15' E 009°58'1315.8
2015-Jul-23 05:33N 41°03' E 009°59'5616.7
2015-Jul-23 02:14N 40°07' E 009°57'4617.0
2015-Jul-22 23:31N 39°21' E 009°52'2914.6
2015-Jul-22 21:33N 38°59' E 009°28'1716.6
2015-Jul-22 20:33N 39°06' E 009°09'8 7.6
2015-Jul-22 19:31N 39°13' E 009°04'0 0.0
2015-Jul-22 18:31N 39°13' E 009°04'0 0.0
2015-Jul-22 17:31N 39°13' E 009°04'0 0.0
2015-Jul-22 16:31N 39°13' E 009°04'0 0.0
2015-Jul-22 15:31N 39°13' E 009°04'0 0.0
2015-Jul-22 14:31N 39°13' E 009°04'0 0.0
2015-Jul-22 13:32N 39°13' E 009°04'0 0.0
2015-Jul-22 12:32N 39°13' E 009°04'0 0.0
2015-Jul-22 11:32N 39°13' E 009°04'0 0.0
2015-Jul-22 10:32N 39°13' E 009°04'0 0.0
2015-Jul-22 09:32N 39°13' E 009°04'0 0.0
2015-Jul-22 08:32N 39°13' E 009°04'0 0.0
2015-Jul-22 07:29N 39°13' E 009°04'0 0.0
2015-Jul-22 06:32N 39°13' E 009°04'0 0.0
2015-Jul-22 05:32N 39°13' E 009°04'0 0.0
2015-Jul-22 04:32N 39°13' E 009°04'0 0.0
2015-Jul-22 03:31N 39°13' E 009°04'0 0.0
2015-Jul-22 02:31N 39°13' E 009°04'0 0.0
2015-Jul-22 01:28N 39°13' E 009°04'0 0.0
2015-Jul-22 00:28N 39°13' E 009°04'0 0.0
2015-Jul-21 23:31N 39°13' E 009°04'0 0.0
2015-Jul-21 22:31N 39°13' E 009°04'0 0.0
2015-Jul-21 21:31N 39°13' E 009°04'0 0.0
2015-Jul-21 20:31N 39°13' E 009°04'0 0.0
2015-Jul-21 19:31N 39°13' E 009°04'0 0.0
2015-Jul-21 18:31N 39°13' E 009°04'  

Dump ship's entire track history